Time;durP1;ratioP1;P1;durP2;ratioP2;P2;SDS_P1;SDS_P2;PMS_P1;PMS_P2;Temp;Humidity;BMP_temperature;BMP_pressure;BME280_temperature;BME280_humidity;BME280_pressure;Samples;Min_cycle;Max_cycle;Signal;HPM_P1;HPM_P2
2023/10/20 00:03:41;;;;;;;118.25;41.00;;;;;;;;;;10028875;28;20041;-71
2023/10/20 00:08:33;;;;;;;122.90;40.20;;;;;;;;;;10029949;28;20072;-71
2023/10/20 00:13:25;;;;;;;115.75;45.15;;;;;;;;;;10044192;28;20088;-70
2023/10/20 00:18:18;;;;;;;102.57;43.22;;;;;;;;;;10029659;28;20041;-71
2023/10/20 00:23:10;;;;;;;163.23;49.42;;;;;;;;;;10028700;28;20095;-70
2023/10/20 00:28:03;;;;;;;137.35;48.88;;;;;;;;;;10028667;28;20057;-71
2023/10/20 00:32:55;;;;;;;147.45;52.28;;;;;;;;;;10028463;28;20080;-72
2023/10/20 00:37:46;;;;;;;140.25;50.03;;;;;;;;;;10042976;28;20414;-72
2023/10/20 00:42:38;;;;;;;137.07;49.78;;;;;;;;;;10030434;28;20038;-73
2023/10/20 00:47:31;;;;;;;144.23;47.30;;;;;;;;;;10027388;28;20095;-72
2023/10/20 00:52:25;;;;;;;138.70;51.00;;;;;;;;;;10026876;28;20050;-72
2023/10/20 00:57:17;;;;;;;157.45;46.53;;;;;;;;;;10026362;28;20050;-71
2023/10/20 01:02:10;;;;;;;164.60;50.22;;;;;;;;;;10042884;28;20495;-71
2023/10/20 01:07:02;;;;;;;190.18;58.25;;;;;;;;;;10026332;28;20574;-70
2023/10/20 01:11:54;;;;;;;143.13;51.15;;;;;;;;;;10030219;28;20420;-70
2023/10/20 01:16:47;;;;;;;160.73;54.65;;;;;;;;;;10027828;28;20052;-72
2023/10/20 01:21:38;;;;;;;296.20;58.13;;;;;;;;;;10026764;28;20365;-71
2023/10/20 01:26:31;;;;;;;189.40;61.78;;;;;;;;;;10027641;28;20042;-71
2023/10/20 01:31:23;;;;;;;148.90;54.65;;;;;;;;;;10025722;28;20050;-70
2023/10/20 01:36:15;;;;;;;155.65;52.70;;;;;;;;;;10034821;28;20042;-70
2023/10/20 01:41:08;;;;;;;194.90;54.03;;;;;;;;;;10034444;28;20484;-71
2023/10/20 01:46:01;;;;;;;220.15;54.65;;;;;;;;;;10032926;28;20061;-71
2023/10/20 01:50:53;;;;;;;136.38;53.55;;;;;;;;;;10035266;28;20046;-72
2023/10/20 01:55:52;;;;;;;204.88;53.30;;;;;;;;;;10034951;28;20049;-71
2023/10/20 02:00:48;;;;;;;259.85;53.88;;;;;;;;;;10035444;28;20041;-71
2023/10/20 02:05:40;;;;;;;257.92;57.85;;;;;;;;;;10048705;28;20050;-71
2023/10/20 02:10:31;;;;;;;182.70;59.88;;;;;;;;;;10033053;28;20045;-70
2023/10/20 02:15:23;;;;;;;195.90;59.28;;;;;;;;;;10033017;28;20042;-71
2023/10/20 02:20:20;;;;;;;286.27;61.60;;;;;;;;;;10031995;28;20129;-71
2023/10/20 02:25:13;;;;;;;229.30;61.67;;;;;;;;;;10048011;28;20137;-73
2023/10/20 02:30:05;;;;;;;335.63;65.68;;;;;;;;;;10033151;28;20053;-73
2023/10/20 02:34:57;;;;;;;173.27;58.85;;;;;;;;;;10031677;28;20472;-71
2023/10/20 02:39:50;;;;;;;207.60;59.60;;;;;;;;;;10032781;28;20041;-72
2023/10/20 02:44:41;;;;;;;285.02;62.97;;;;;;;;;;10033356;28;20038;-73
2023/10/20 02:49:33;;;;;;;174.50;50.45;;;;;;;;;;10046470;28;20417;-73
2023/10/20 02:54:25;;;;;;;223.27;46.65;;;;;;;;;;10031990;28;20044;-72
2023/10/20 02:59:17;;;;;;;199.38;42.15;;;;;;;;;;10031322;28;20056;-73
2023/10/20 03:04:09;;;;;;;368.70;58.03;;;;;;;;;;10032026;28;20081;-73
2023/10/20 03:09:02;;;;;;;136.25;48.47;;;;;;;;;;10031902;28;20476;-72
2023/10/20 03:13:55;;;;;;;130.50;49.67;;;;;;;;;;10030299;28;20050;-72
2023/10/20 03:18:47;;;;;;;192.25;52.30;;;;;;;;;;10045963;28;20081;-73
2023/10/20 03:23:43;;;;;;;269.52;57.85;;;;;;;;;;10032290;28;20419;-73
2023/10/20 03:28:35;;;;;;;183.88;56.58;;;;;;;;;;10029311;28;20480;-74
2023/10/20 03:33:27;;;;;;;153.77;51.28;;;;;;;;;;10032590;28;20502;-73
2023/10/20 03:38:19;;;;;;;178.48;52.35;;;;;;;;;;10044717;28;20042;-73
2023/10/20 03:43:11;;;;;;;170.68;55.40;;;;;;;;;;10030465;28;20096;-73
2023/10/20 03:48:03;;;;;;;189.43;60.88;;;;;;;;;;10028846;28;20160;-72
2023/10/20 03:52:55;;;;;;;137.68;55.58;;;;;;;;;;10030162;28;20046;-70
2023/10/20 03:57:47;;;;;;;162.90;53.65;;;;;;;;;;10029896;28;20111;-71
2023/10/20 04:02:39;;;;;;;101.00;43.78;;;;;;;;;;10027895;28;20427;-73
2023/10/20 04:07:31;;;;;;;100.80;43.60;;;;;;;;;;10029156;28;20045;-73
2023/10/20 04:12:23;;;;;;;101.32;42.80;;;;;;;;;;10028062;28;20046;-72
2023/10/20 04:17:15;;;;;;;120.90;51.72;;;;;;;;;;10029606;28;20472;-73
2023/10/20 04:22:12;;;;;;;141.13;59.40;;;;;;;;;;10028534;28;20052;-73
2023/10/20 04:27:05;;;;;;;127.15;55.67;;;;;;;;;;10030323;28;20096;-73
2023/10/20 04:57:29;;;;;;;64.00;32.95;;;;;;;;;;10028395;28;20042;-74
2023/10/20 05:02:40;;;;;;;42.95;24.70;;;;;;;;;;10032406;28;20069;-74
2023/10/20 05:07:32;;;;;;;43.47;23.15;;;;;;;;;;10057889;28;20148;-73
2023/10/20 05:12:24;;;;;;;111.68;55.83;;;;;;;;;;10027401;28;20042;-73
2023/10/20 05:17:17;;;;;;;111.43;54.28;;;;;;;;;;10028040;28;20046;-72
2023/10/20 05:22:09;;;;;;;105.38;47.47;;;;;;;;;;10031273;28;20128;-71
2023/10/20 05:27:01;;;;;;;76.97;40.20;;;;;;;;;;10052701;28;20041;-73
2023/10/20 05:31:53;;;;;;;84.50;41.30;;;;;;;;;;10063535;28;20053;-72
2023/10/20 05:36:45;;;;;;;99.88;48.17;;;;;;;;;;10062775;28;20045;-71
2023/10/20 05:41:37;;;;;;;75.47;41.88;;;;;;;;;;10060306;28;20041;-71
2023/10/20 05:46:29;;;;;;;92.22;44.10;;;;;;;;;;10061207;28;20045;-71
2023/10/20 05:51:21;;;;;;;70.45;36.85;;;;;;;;;;10061789;28;20045;-71
2023/10/20 05:56:13;;;;;;;58.03;33.03;;;;;;;;;;10062639;28;20088;-71
2023/10/20 06:01:06;;;;;;;53.25;33.28;;;;;;;;;;10059139;28;20061;-69
2023/10/20 06:06:03;;;;;;;51.33;25.58;;;;;;;;;;10050025;28;20057;-70
2023/10/20 06:11:02;;;;;;;39.90;20.55;;;;;;;;;;10058545;28;20057;-69
2023/10/20 06:15:55;;;;;;;33.53;20.67;;;;;;;;;;10055881;28;20049;-71
2023/10/20 06:20:47;;;;;;;35.45;16.23;;;;;;;;;;10062046;28;20156;-71
2023/10/20 06:25:39;;;;;;;27.63;16.33;;;;;;;;;;10064466;28;20037;-70
2023/10/20 06:30:31;;;;;;;27.88;16.42;;;;;;;;;;10070039;28;20486;-72
2023/10/20 06:35:32;;;;;;;22.98;11.20;;;;;;;;;;10069512;28;20467;-66
2023/10/20 06:40:24;;;;;;;23.85;10.27;;;;;;;;;;10070438;28;20432;-67
2023/10/20 06:45:16;;;;;;;20.85;11.68;;;;;;;;;;10068241;28;20423;-66
2023/10/20 06:50:10;;;;;;;21.63;10.18;;;;;;;;;;10056439;28;20092;-68
2023/10/20 06:55:04;;;;;;;24.45;11.88;;;;;;;;;;10068919;28;20042;-68
2023/10/20 07:00:17;;;;;;;29.15;13.57;;;;;;;;;;10068880;28;20041;-67
2023/10/20 07:05:10;;;;;;;21.35;11.10;;;;;;;;;;10068776;28;20443;-68
2023/10/20 07:10:03;;;;;;;28.10;11.05;;;;;;;;;;10068827;28;20056;-68
2023/10/20 07:14:55;;;;;;;24.15;12.10;;;;;;;;;;10067961;28;20439;-68
2023/10/20 07:19:47;;;;;;;18.63;10.15;;;;;;;;;;10068098;28;20571;-68
2023/10/20 07:24:39;;;;;;;22.55;11.00;;;;;;;;;;10068318;28;20053;-68
2023/10/20 07:29:31;;;;;;;22.55;9.70;;;;;;;;;;10067106;28;20069;-68
2023/10/20 07:34:25;;;;;;;20.02;10.77;;;;;;;;;;10062933;28;20076;-68
2023/10/20 07:39:17;;;;;;;19.08;7.93;;;;;;;;;;10067679;28;20041;-67
2023/10/20 07:44:11;;;;;;;20.85;6.78;;;;;;;;;;10067766;28;20052;-67
2023/10/20 07:49:04;;;;;;;14.25;6.72;;;;;;;;;;10067927;28;20053;-68
2023/10/20 07:53:55;;;;;;;15.25;5.75;;;;;;;;;;10067421;28;20136;-67
2023/10/20 07:58:48;;;;;;;15.30;5.85;;;;;;;;;;10067624;28;20119;-68
2023/10/20 08:03:42;;;;;;;13.13;5.15;;;;;;;;;;10066708;28;20053;-68
2023/10/20 08:08:34;;;;;;;19.58;6.28;;;;;;;;;;10066211;28;20391;-68
2023/10/20 08:13:26;;;;;;;21.48;7.82;;;;;;;;;;10067259;28;20045;-68
2023/10/20 08:18:18;;;;;;;20.83;8.57;;;;;;;;;;10066414;28;20521;-65
2023/10/20 08:23:10;;;;;;;24.02;7.35;;;;;;;;;;10065822;28;20067;-66
2023/10/20 08:28:02;;;;;;;24.50;9.23;;;;;;;;;;10066645;28;20050;-65
2023/10/20 08:32:54;;;;;;;17.45;7.30;;;;;;;;;;10064727;28;20550;-65
2023/10/20 08:37:46;;;;;;;26.92;10.35;;;;;;;;;;10065592;28;20075;-65
2023/10/20 08:42:39;;;;;;;26.48;10.00;;;;;;;;;;10066245;28;20124;-66
2023/10/20 08:47:31;;;;;;;26.90;12.30;;;;;;;;;;10063410;28;20715;-68
2023/10/20 08:52:23;;;;;;;22.35;7.82;;;;;;;;;;10064102;28;20125;-68
2023/10/20 08:57:15;;;;;;;18.63;6.82;;;;;;;;;;10063790;28;20403;-67
2023/10/20 09:02:08;;;;;;;14.77;6.40;;;;;;;;;;10064309;28;20056;-69
2023/10/20 09:07:03;;;;;;;17.33;6.22;;;;;;;;;;10065287;28;20427;-67
2023/10/20 09:11:57;;;;;;;24.00;8.82;;;;;;;;;;10058174;28;20076;-68
2023/10/20 09:16:51;;;;;;;16.88;6.63;;;;;;;;;;10064497;28;20348;-67
2023/10/20 09:21:44;;;;;;;21.35;7.10;;;;;;;;;;10064029;28;20155;-67
2023/10/20 09:26:38;;;;;;;39.38;9.05;;;;;;;;;;10064863;28;20049;-67
2023/10/20 09:31:30;;;;;;;19.25;7.55;;;;;;;;;;10064054;28;20084;-67
2023/10/20 09:36:25;;;;;;;14.25;6.38;;;;;;;;;;10064547;28;20048;-67
2023/10/20 09:41:17;;;;;;;14.90;6.38;;;;;;;;;;10063718;28;20037;-68
2023/10/20 09:46:19;;;;;;;24.50;5.82;;;;;;;;;;10063291;28;20072;-68
2023/10/20 09:51:12;;;;;;;24.85;6.38;;;;;;;;;;10063910;28;20084;-67
2023/10/20 09:56:04;;;;;;;29.98;7.43;;;;;;;;;;10062619;28;20542;-67
2023/10/20 10:00:56;;;;;;;22.67;6.05;;;;;;;;;;10069245;28;20140;-67
2023/10/20 10:05:48;;;;;;;21.60;7.40;;;;;;;;;;10070527;28;20111;-67
2023/10/20 10:10:40;;;;;;;21.50;6.35;;;;;;;;;;10070824;28;20076;-68
2023/10/20 10:15:39;;;;;;;29.48;9.82;;;;;;;;;;10056954;28;20080;-66
2023/10/20 10:20:31;;;;;;;19.48;9.82;;;;;;;;;;10071373;28;20045;-68
2023/10/20 10:25:36;;;;;;;19.52;12.35;;;;;;;;;;10071098;28;20057;-68
2023/10/20 10:30:28;;;;;;;20.80;13.57;;;;;;;;;;10069419;28;20084;-68
2023/10/20 10:35:20;;;;;;;28.50;14.80;;;;;;;;;;10048701;28;20049;-66
2023/10/20 10:40:18;;;;;;;24.95;15.55;;;;;;;;;;10033131;28;20395;-67
2023/10/20 10:45:21;;;;;;;29.95;15.13;;;;;;;;;;10033435;28;20046;-67
2023/10/20 10:50:16;;;;;;;36.58;14.32;;;;;;;;;;10032192;28;20522;-67
2023/10/20 10:55:09;;;;;;;17.38;12.18;;;;;;;;;;10040179;28;20052;-67
2023/10/20 11:00:03;;;;;;;32.15;15.40;;;;;;;;;;10033384;28;20100;-67
2023/10/20 11:04:55;;;;;;;24.05;13.80;;;;;;;;;;10031999;28;20423;-66
2023/10/20 11:09:47;;;;;;;26.23;13.02;;;;;;;;;;10030778;28;20068;-67
2023/10/20 11:14:39;;;;;;;30.60;14.98;;;;;;;;;;10033491;28;20128;-67
2023/10/20 11:19:31;;;;;;;29.13;12.30;;;;;;;;;;10031836;28;20042;-68
2023/10/20 11:24:28;;;;;;;21.50;11.73;;;;;;;;;;10054410;28;20096;-67
2023/10/20 11:29:20;;;;;;;25.60;11.30;;;;;;;;;;10046967;28;20136;-65
2023/10/20 11:34:12;;;;;;;21.48;11.25;;;;;;;;;;10041703;28;20520;-65
2023/10/20 11:39:06;;;;;;;30.65;11.43;;;;;;;;;;10050761;28;20404;-64
2023/10/20 11:43:58;;;;;;;31.52;11.75;;;;;;;;;;10029373;28;20041;-65
2023/10/20 11:48:50;;;;;;;21.17;10.85;;;;;;;;;;10031036;28;20061;-65
2023/10/20 11:53:42;;;;;;;24.55;10.63;;;;;;;;;;10030194;28;20133;-65
2023/10/20 11:58:34;;;;;;;17.67;8.68;;;;;;;;;;10036863;28;20045;-64
2023/10/20 12:03:25;;;;;;;32.08;9.82;;;;;;;;;;10030230;28;20069;-65
2023/10/20 12:08:17;;;;;;;18.48;9.43;;;;;;;;;;10028506;28;20038;-65
2023/10/20 12:13:09;;;;;;;24.48;12.13;;;;;;;;;;10057807;28;20041;-68
2023/10/20 12:18:01;;;;;;;23.45;11.45;;;;;;;;;;10063867;28;20073;-67
2023/10/20 12:22:58;;;;;;;22.15;11.38;;;;;;;;;;10063306;28;20051;-66
2023/10/20 12:27:50;;;;;;;20.80;13.93;;;;;;;;;;10064179;28;20052;-67
2023/10/20 12:32:43;;;;;;;24.20;14.27;;;;;;;;;;10066258;28;20426;-66
2023/10/20 12:37:35;;;;;;;25.88;12.90;;;;;;;;;;10061689;28;20361;-66
2023/10/20 12:42:27;;;;;;;27.75;12.32;;;;;;;;;;10064710;28;20348;-65
2023/10/20 12:47:20;;;;;;;28.38;13.95;;;;;;;;;;10065497;28;20038;-67
2023/10/20 12:52:12;;;;;;;1.75;1.63;;;;;;;;;;10064673;28;20057;-67
2023/10/20 12:57:04;;;;;;;1.48;1.38;;;;;;;;;;10064152;28;20053;-67
2023/10/20 13:01:56;;;;;;;1.80;1.70;;;;;;;;;;10061541;28;20063;-67
2023/10/20 13:06:48;;;;;;;1.00;1.00;;;;;;;;;;10062898;28;20274;-72
2023/10/20 13:11:51;;;;;;;4.68;1.90;;;;;;;;;;10051654;28;20460;-73
2023/10/20 13:16:43;;;;;;;4.50;3.35;;;;;;;;;;10062934;28;20049;-72
2023/10/20 13:21:34;;;;;;;0.85;0.85;;;;;;;;;;10063361;28;20048;-73
2023/10/20 13:26:26;;;;;;;0.57;0.57;;;;;;;;;;10062441;28;20100;-73
2023/10/20 13:31:21;;;;;;;7.72;2.30;;;;;;;;;;10060157;28;20524;-73
2023/10/20 13:36:13;;;;;;;0.77;0.77;;;;;;;;;;10066272;28;20456;-72
2023/10/20 13:41:08;;;;;;;3.33;2.65;;;;;;;;;;10069591;28;20146;-73
2023/10/20 13:46:01;;;;;;;0.90;0.90;;;;;;;;;;10070547;28;20080;-72
2023/10/20 13:50:53;;;;;;;0.40;0.40;;;;;;;;;;10071424;28;20060;-68
2023/10/20 13:55:45;;;;;;;0.55;0.55;;;;;;;;;;10070357;28;20095;-71
2023/10/20 14:00:38;;;;;;;0.60;0.60;;;;;;;;;;10072432;28;20046;-70
2023/10/20 14:05:30;;;;;;;0.40;0.40;;;;;;;;;;10070537;28;20045;-70
2023/10/20 14:10:23;;;;;;;0.43;0.43;;;;;;;;;;10069962;28;20451;-71
2023/10/20 14:15:15;;;;;;;0.60;0.60;;;;;;;;;;10070636;28;20041;-70
2023/10/20 14:20:08;;;;;;;0.57;0.57;;;;;;;;;;10069475;28;20038;-70
2023/10/20 14:25:00;;;;;;;0.35;0.35;;;;;;;;;;10069672;28;20099;-71
2023/10/20 14:29:52;;;;;;;0.60;0.60;;;;;;;;;;10069477;28;20077;-68
2023/10/20 14:34:44;;;;;;;0.43;0.43;;;;;;;;;;10068708;28;20140;-70
2023/10/20 14:39:39;;;;;;;0.40;0.40;;;;;;;;;;10070002;28;20460;-71
2023/10/20 14:44:31;;;;;;;1.23;1.08;;;;;;;;;;10068348;28;20052;-70
2023/10/20 14:49:24;;;;;;;0.60;0.60;;;;;;;;;;10069095;28;20060;-70
2023/10/20 14:54:16;;;;;;;0.40;0.40;;;;;;;;;;10068025;28;20140;-70
2023/10/20 14:59:10;;;;;;;0.60;0.60;;;;;;;;;;10069025;28;20136;-71
2023/10/20 15:04:03;;;;;;;0.40;0.40;;;;;;;;;;10066556;28;20747;-70
2023/10/20 15:09:14;;;;;;;0.93;0.93;;;;;;;;;;10066585;28;20107;-70
2023/10/20 15:14:06;;;;;;;0.40;0.40;;;;;;;;;;10068114;28;20152;-71
2023/10/20 15:18:58;;;;;;;0.70;0.70;;;;;;;;;;10066740;28;20056;-70
2023/10/20 15:23:50;;;;;;;0.40;0.40;;;;;;;;;;10068260;28;20096;-71
2023/10/20 15:28:42;;;;;;;0.40;0.40;;;;;;;;;;10067868;28;20124;-70
2023/10/20 15:33:35;;;;;;;0.60;0.60;;;;;;;;;;10066620;28;20503;-70
2023/10/20 15:38:28;;;;;;;1.38;1.27;;;;;;;;;;10079745;28;20037;-69
2023/10/20 15:43:20;;;;;;;0.70;0.70;;;;;;;;;;10080581;28;20040;-70
2023/10/20 15:48:12;;;;;;;0.40;0.40;;;;;;;;;;10093651;28;20584;-70
2023/10/20 15:53:04;;;;;;;0.40;0.40;;;;;;;;;;10075449;28;20049;-70
2023/10/20 15:57:56;;;;;;;0.40;0.40;;;;;;;;;;10073607;28;20061;-70
2023/10/20 16:02:47;;;;;;;0.40;0.40;;;;;;;;;;10076245;28;20083;-69
2023/10/20 16:07:39;;;;;;;0.50;0.50;;;;;;;;;;10064176;28;20045;-71
2023/10/20 16:12:31;;;;;;;0.40;0.40;;;;;;;;;;10065143;28;20095;-70
2023/10/20 16:17:23;;;;;;;1.05;1.05;;;;;;;;;;10065892;28;20361;-70
2023/10/20 16:22:15;;;;;;;0.40;0.40;;;;;;;;;;10067243;28;20045;-71
2023/10/20 16:27:06;;;;;;;0.52;0.52;;;;;;;;;;10065010;28;20528;-70
2023/10/20 16:31:58;;;;;;;0.40;0.40;;;;;;;;;;10065476;28;20049;-70
2023/10/20 16:36:50;;;;;;;0.40;0.40;;;;;;;;;;10064612;28;20100;-70
2023/10/20 16:41:42;;;;;;;0.40;0.40;;;;;;;;;;10064530;28;20047;-70
2023/10/20 16:46:37;;;;;;;0.47;0.47;;;;;;;;;;10065225;28;20050;-71
2023/10/20 16:51:29;;;;;;;0.40;0.40;;;;;;;;;;10064580;28;20041;-71
2023/10/20 16:56:21;;;;;;;0.40;0.40;;;;;;;;;;10064897;28;20124;-71
2023/10/20 17:01:12;;;;;;;1.25;1.15;;;;;;;;;;10064993;28;20049;-71
2023/10/20 17:06:07;;;;;;;0.40;0.40;;;;;;;;;;10063865;28;20068;-71
2023/10/20 17:11:03;;;;;;;0.50;0.50;;;;;;;;;;10062829;28;20491;-71
2023/10/20 17:15:55;;;;;;;0.40;0.40;;;;;;;;;;10060110;28;20427;-70
2023/10/20 17:20:49;;;;;;;0.50;0.50;;;;;;;;;;10056816;28;20138;-71
2023/10/20 17:25:47;;;;;;;0.40;0.40;;;;;;;;;;10063503;28;20447;-71
2023/10/20 17:30:39;;;;;;;0.50;0.50;;;;;;;;;;10063474;28;20246;-68
2023/10/20 17:35:35;;;;;;;0.50;0.50;;;;;;;;;;10057177;28;20315;-71
2023/10/20 17:40:27;;;;;;;0.47;0.47;;;;;;;;;;10051846;28;20045;-70
2023/10/20 17:45:22;;;;;;;0.40;0.40;;;;;;;;;;10063438;28;20145;-70
2023/10/20 17:50:14;;;;;;;0.40;0.40;;;;;;;;;;10063163;28;20068;-70
2023/10/20 17:55:06;;;;;;;0.40;0.40;;;;;;;;;;10063841;28;20111;-68
2023/10/20 17:59:58;;;;;;;0.50;0.50;;;;;;;;;;10061896;28;20107;-70
2023/10/20 18:04:51;;;;;;;0.50;0.50;;;;;;;;;;10062568;28;20446;-70
2023/10/20 18:09:43;;;;;;;0.40;0.40;;;;;;;;;;10063653;28;20058;-71
2023/10/20 18:14:35;;;;;;;8.38;0.68;;;;;;;;;;10062521;28;20057;-70
2023/10/20 18:19:27;;;;;;;1.00;0.95;;;;;;;;;;10064593;28;20518;-70
2023/10/20 18:24:19;;;;;;;2.13;1.48;;;;;;;;;;10045677;28;20057;-71
2023/10/20 18:29:11;;;;;;;0.70;0.70;;;;;;;;;;10032994;28;20045;-69
2023/10/20 18:34:03;;;;;;;0.60;0.60;;;;;;;;;;10033064;28;20458;-70
2023/10/20 18:38:55;;;;;;;0.40;0.40;;;;;;;;;;10039181;28;20050;-69
2023/10/20 18:43:47;;;;;;;0.55;0.55;;;;;;;;;;10046333;28;20045;-69
2023/10/20 18:48:40;;;;;;;0.85;0.85;;;;;;;;;;10055122;28;20053;-70
2023/10/20 18:53:32;;;;;;;0.50;0.50;;;;;;;;;;10069174;28;20529;-69
2023/10/20 18:58:24;;;;;;;0.60;0.60;;;;;;;;;;10068863;28;20487;-71
2023/10/20 19:03:16;;;;;;;1.77;1.67;;;;;;;;;;10068125;28;20049;-70
2023/10/20 19:08:08;;;;;;;0.40;0.40;;;;;;;;;;10066798;28;20052;-71
2023/10/20 19:13:00;;;;;;;0.60;0.60;;;;;;;;;;10036713;28;20145;-72
2023/10/20 19:17:52;;;;;;;0.40;0.40;;;;;;;;;;10067348;28;20076;-72
2023/10/20 19:22:45;;;;;;;0.40;0.40;;;;;;;;;;10057238;28;20049;-71
2023/10/20 19:27:36;;;;;;;0.40;0.40;;;;;;;;;;10056810;28;20045;-72
2023/10/20 19:32:31;;;;;;;0.30;0.30;;;;;;;;;;10057464;28;20041;-70
2023/10/20 19:37:23;;;;;;;0.50;0.50;;;;;;;;;;10066853;28;20045;-70
2023/10/20 19:42:15;;;;;;;0.40;0.40;;;;;;;;;;10056417;28;20502;-73
2023/10/20 19:47:09;;;;;;;0.40;0.40;;;;;;;;;;10059592;28;20038;-71
2023/10/20 19:52:01;;;;;;;0.40;0.40;;;;;;;;;;10063132;28;20046;-72
2023/10/20 19:56:53;;;;;;;0.40;0.40;;;;;;;;;;10058539;28;20034;-69
2023/10/20 20:01:45;;;;;;;0.50;0.50;;;;;;;;;;10066459;28;20059;-72
2023/10/20 20:06:38;;;;;;;0.40;0.40;;;;;;;;;;10053325;28;20556;-72
2023/10/20 20:11:30;;;;;;;1.10;1.05;;;;;;;;;;10061078;28;20078;-72
2023/10/20 20:16:22;;;;;;;0.40;0.40;;;;;;;;;;10048865;28;20155;-72
2023/10/20 20:21:14;;;;;;;0.40;0.40;;;;;;;;;;10063067;28;20099;-71
2023/10/20 20:26:07;;;;;;;0.40;0.40;;;;;;;;;;10063775;28;20045;-72
2023/10/20 20:30:59;;;;;;;0.40;0.40;;;;;;;;;;10046239;28;20132;-72
2023/10/20 20:35:51;;;;;;;0.30;0.30;;;;;;;;;;10047386;28;20058;-69
2023/10/20 20:40:43;;;;;;;0.40;0.40;;;;;;;;;;10055578;28;20042;-69
2023/10/20 20:45:35;;;;;;;0.40;0.40;;;;;;;;;;10061146;28;20132;-70
2023/10/20 20:50:28;;;;;;;0.40;0.40;;;;;;;;;;10054062;28;20050;-71
2023/10/20 20:55:24;;;;;;;0.40;0.40;;;;;;;;;;10060410;28;20045;-71
2023/10/20 21:00:16;;;;;;;0.40;0.40;;;;;;;;;;10060478;28;20068;-70
2023/10/20 21:05:08;;;;;;;0.55;0.55;;;;;;;;;;10061156;28;20112;-70
2023/10/20 21:10:00;;;;;;;0.40;0.40;;;;;;;;;;10062017;28;20045;-69
2023/10/20 21:14:52;;;;;;;0.40;0.40;;;;;;;;;;10060031;28;20057;-70
2023/10/20 21:19:44;;;;;;;0.60;0.60;;;;;;;;;;10049948;28;20492;-70
2023/10/20 21:24:36;;;;;;;0.77;0.70;;;;;;;;;;10049704;28;20088;-69
2023/10/20 21:29:28;;;;;;;0.40;0.40;;;;;;;;;;10061612;28;20046;-69
2023/10/20 21:34:20;;;;;;;0.50;0.50;;;;;;;;;;10062277;28;20073;-69
2023/10/20 21:39:12;;;;;;;0.40;0.40;;;;;;;;;;10063488;28;20048;-69
2023/10/20 21:44:05;;;;;;;0.40;0.40;;;;;;;;;;10054307;28;20437;-69
2023/10/20 21:48:58;;;;;;;0.40;0.40;;;;;;;;;;10063075;28;20038;-69
2023/10/20 21:53:50;;;;;;;0.40;0.40;;;;;;;;;;10063771;28;20073;-69
2023/10/20 21:58:42;;;;;;;0.50;0.50;;;;;;;;;;10071142;28;20472;-69
2023/10/20 22:03:34;;;;;;;0.40;0.40;;;;;;;;;;10070139;28;20144;-69
2023/10/20 22:08:26;;;;;;;0.50;0.50;;;;;;;;;;10070490;28;20048;-70
2023/10/20 22:13:19;;;;;;;0.45;0.45;;;;;;;;;;10067058;28;20505;-70
2023/10/20 22:18:11;;;;;;;0.40;0.40;;;;;;;;;;10070259;28;20471;-70
2023/10/20 22:23:03;;;;;;;0.52;0.52;;;;;;;;;;10071010;28;20050;-69
2023/10/20 22:27:56;;;;;;;0.40;0.40;;;;;;;;;;10071130;28;20490;-70
2023/10/20 22:32:48;;;;;;;0.40;0.40;;;;;;;;;;10062170;28;20110;-70
2023/10/20 22:37:40;;;;;;;0.40;0.40;;;;;;;;;;10070493;28;20129;-70
2023/10/20 22:42:32;;;;;;;0.47;0.47;;;;;;;;;;10069980;28;20192;-70
2023/10/20 22:47:24;;;;;;;0.65;0.65;;;;;;;;;;10070129;28;20464;-71
2023/10/20 22:52:16;;;;;;;0.40;0.40;;;;;;;;;;10069517;28;20357;-71
2023/10/20 22:57:08;;;;;;;0.40;0.40;;;;;;;;;;10069286;28;20041;-70
2023/10/20 23:02:01;;;;;;;0.40;0.40;;;;;;;;;;10069417;28;20080;-69
2023/10/20 23:06:53;;;;;;;0.60;0.60;;;;;;;;;;10067827;28;20050;-70
2023/10/20 23:11:46;;;;;;;0.50;0.50;;;;;;;;;;10055968;28;20042;-71
2023/10/20 23:16:38;;;;;;;0.50;0.50;;;;;;;;;;10068914;28;20040;-70
2023/10/20 23:21:30;;;;;;;0.50;0.50;;;;;;;;;;10068973;28;20456;-70
2023/10/20 23:26:22;;;;;;;0.50;0.50;;;;;;;;;;10068786;28;20080;-69
2023/10/20 23:31:14;;;;;;;0.50;0.50;;;;;;;;;;10068126;28;20046;-70
2023/10/20 23:36:07;;;;;;;0.50;0.50;;;;;;;;;;10044566;28;20045;-70
2023/10/20 23:40:59;;;;;;;0.50;0.50;;;;;;;;;;10029666;28;20046;-70
2023/10/20 23:45:51;;;;;;;0.43;0.43;;;;;;;;;;10029276;28;20042;-68
2023/10/20 23:50:43;;;;;;;0.40;0.40;;;;;;;;;;10029627;28;20050;-70
2023/10/20 23:55:35;;;;;;;0.43;0.43;;;;;;;;;;10029321;28;20046;-70
